Shuckone — WDE4969 — position and weather

sailwx.info

Track history (hours):
 
Tides and Currents Weather Stations Pressure Air Temp Water Temp Dewpoint Dewpoint Depression Visibility Wind Speed Wind Dir Waves Ship Positions

Shuckone

Owner: Shuckone LLC, North Cape May, NJ. More information available from US FCC via Universal Licensing System and Coast Guard Vessel Documentation Center.

Last reported at 2017-Sep-18 12:54 UTC. Time now 2017-Sep-19 20:22 UTC.
Position N 39°10' W 075°11'.

Length 22 m.

Type: Fishing. MMSI: 367360320.

Date/timePositionNaut miles runAvg speedWind from/ knotsBaromVisibWave heightAir tempDewpointWater temp
2017-Sep-18 12:54N 39°10' W 075°11'0 0.0
2017-Sep-18 12:30N 39°10' W 075°11'0 0.0
2017-Sep-18 12:00N 39°10' W 075°11'9 0.2
2017-Sep-16 12:32N 39°14' W 075°01'0 0.0
2017-Sep-16 12:29N 39°14' W 075°01'0 0.0
2017-Sep-16 11:41N 39°14' W 075°01'0 0.0
2017-Sep-16 09:11N 39°14' W 075°01'0 0.0
2017-Sep-14 07:03N 39°14' W 075°01'8 0.4
2017-Sep-13 12:08N 39°10' W 075°11'1 4.4
2017-Sep-13 12:00N 39°10' W 075°10'3 6.9
2017-Sep-13 11:30N 39°09' W 075°06'3 6.9
2017-Sep-13 11:00N 39°11' W 075°02'3 5.9
2017-Sep-13 10:30N 39°14' W 075°01'2 0.2
2017-Sep-12 22:38N 39°12' W 075°02'1 6.7
2017-Sep-12 22:28N 39°11' W 075°02'7 0.8
2017-Sep-12 13:52N 39°11' W 075°11'1 0.7
2017-Sep-12 13:00N 39°10' W 075°10'3 5.0
2017-Sep-12 12:29N 39°09' W 075°07'  
Track history (hours):
 
Tides and Currents Weather Stations Pressure Air Temp Water Temp Dewpoint Dewpoint Depression Visibility Wind Speed Wind Dir Waves Ship Positions

Shuckone

Owner: Shuckone LLC, North Cape May, NJ. More information available from US FCC via Universal Licensing System and Coast Guard Vessel Documentation Center.

Last reported at 2017-Sep-18 12:54 UTC. Time now 2017-Sep-19 20:22 UTC.
Position N 39°10' W 075°11'.

Length 22 m.

Type: Fishing. MMSI: 367360320.

Date/timePositionNaut miles runAvg speedWind from/ knotsBaromVisibWave heightAir tempDewpointWater temp
2017-Sep-18 12:54N 39°10' W 075°11'0 0.0
2017-Sep-18 12:30N 39°10' W 075°11'0 0.0
2017-Sep-18 12:00N 39°10' W 075°11'9 0.2
2017-Sep-16 12:32N 39°14' W 075°01'0 0.0
2017-Sep-16 12:29N 39°14' W 075°01'0 0.0
2017-Sep-16 11:41N 39°14' W 075°01'0 0.0
2017-Sep-16 09:11N 39°14' W 075°01'0 0.0
2017-Sep-14 07:03N 39°14' W 075°01'8 0.4
2017-Sep-13 12:08N 39°10' W 075°11'1 4.4
2017-Sep-13 12:00N 39°10' W 075°10'3 6.9
2017-Sep-13 11:30N 39°09' W 075°06'3 6.9
2017-Sep-13 11:00N 39°11' W 075°02'3 5.9
2017-Sep-13 10:30N 39°14' W 075°01'2 0.2
2017-Sep-12 22:38N 39°12' W 075°02'1 6.7
2017-Sep-12 22:28N 39°11' W 075°02'7 0.8
2017-Sep-12 13:52N 39°11' W 075°11'1 0.7
2017-Sep-12 13:00N 39°10' W 075°10'3 5.0
2017-Sep-12 12:29N 39°09' W 075°07'  

Dump ship's entire track history